Time;durP1;ratioP1;P1;durP2;ratioP2;P2;SDS_P1;SDS_P2;PMS_P1;PMS_P2;Temp;Humidity;BMP_temperature;BMP_pressure;BME280_temperature;BME280_humidity;BME280_pressure;Samples;Min_cycle;Max_cycle;Signal;HPM_P1;HPM_P2
2023/01/11 00:02:12;;;;;;;5.18;2.53;;;;;;;10.96;100.00;100609.06;5300627;28;20497;-78
2023/01/11 00:04:43;;;;;;;5.47;2.30;;;;;;;11.12;100.00;100616.38;5305374;28;20367;-78
2023/01/11 00:07:14;;;;;;;4.72;2.00;;;;;;;11.14;100.00;100614.47;5304742;28;20055;-78
2023/01/11 00:09:46;;;;;;;4.30;2.03;;;;;;;11.09;100.00;100616.66;5285886;28;20024;-78
2023/01/11 00:12:18;;;;;;;8.05;2.38;;;;;;;11.11;100.00;100612.09;5302039;28;20036;-78
2023/01/11 00:14:49;;;;;;;3.58;1.98;;;;;;;11.15;100.00;100610.03;5300927;28;20028;-78
2023/01/11 00:17:20;;;;;;;5.30;2.22;;;;;;;11.17;100.00;100600.22;5301355;28;20408;-78
2023/01/11 00:19:51;;;;;;;3.17;1.60;;;;;;;11.20;100.00;100599.94;5284679;28;20447;-78
2023/01/11 00:22:23;;;;;;;3.30;1.55;;;;;;;11.20;100.00;100598.16;5302577;28;20019;-78
2023/01/11 00:24:54;;;;;;;5.55;1.63;;;;;;;11.22;100.00;100597.19;5300191;28;20016;-78
2023/01/11 00:27:25;;;;;;;4.20;1.88;;;;;;;11.30;100.00;100597.31;5295933;28;20122;-78
2023/01/11 00:29:57;;;;;;;4.75;1.90;;;;;;;11.17;100.00;100584.50;5303624;28;20435;-78
2023/01/11 00:32:28;;;;;;;3.47;1.55;;;;;;;11.29;100.00;100591.25;5300067;28;20035;-78
2023/01/11 00:35:00;;;;;;;3.95;1.65;;;;;;;11.34;100.00;100593.44;5300588;28;20048;-78
2023/01/11 00:37:31;;;;;;;4.43;1.50;;;;;;;11.34;100.00;100589.03;5284675;28;20388;-78
2023/01/11 00:40:03;;;;;;;3.72;1.52;;;;;;;11.32;100.00;100585.69;5304773;28;20024;-78
2023/01/11 00:48:14;;;;;;;3.35;1.38;;;;;;;11.25;100.00;100576.78;5305836;28;20035;-78
2023/01/11 00:50:45;;;;;;;2.42;1.25;;;;;;;11.29;100.00;100578.16;5303031;28;20024;-78
2023/01/11 00:53:18;;;;;;;3.88;1.77;;;;;;;11.23;100.00;100576.06;5303029;28;20082;-79
2023/01/11 00:55:51;;;;;;;4.10;1.47;;;;;;;11.33;100.00;100579.50;5302367;28;20035;-78
2023/01/11 00:58:23;;;;;;;3.92;1.50;;;;;;;11.35;100.00;100574.94;5303029;28;20269;-78
2023/01/11 01:00:54;;;;;;;6.38;2.08;;;;;;;11.34;100.00;100568.03;5300628;28;20081;-79
2023/01/11 01:03:25;;;;;;;4.13;1.75;;;;;;;11.33;100.00;100560.34;5308422;28;20099;-78
2023/01/11 01:05:57;;;;;;;2.72;1.48;;;;;;;11.33;100.00;100560.34;5305419;28;20052;-79
2023/01/11 01:08:28;;;;;;;2.00;1.25;;;;;;;11.35;100.00;100574.94;5305855;28;20533;-79
2023/01/11 01:10:59;;;;;;;4.53;1.73;;;;;;;11.19;100.00;100553.72;5302792;28;20257;-79
2023/01/11 01:16:20;;;;;;;4.00;1.50;;;;;;;11.31;100.00;100568.31;5305927;28;20040;-79
2023/01/11 01:18:52;;;;;;;4.55;1.60;;;;;;;11.33;100.00;100573.44;5290298;28;20028;-79
2023/01/11 01:21:24;;;;;;;4.70;2.00;;;;;;;11.37;100.00;100567.75;5282485;28;20044;-80
2023/01/11 01:23:56;;;;;;;3.77;1.50;;;;;;;11.43;100.00;100568.97;5307165;28;20024;-79
2023/01/11 01:26:27;;;;;;;2.42;1.58;;;;;;;11.36;100.00;100579.19;5286617;28;20031;-79
2023/01/11 01:28:59;;;;;;;2.40;1.48;;;;;;;11.42;100.00;100576.03;5306816;28;20159;-80
2023/01/11 01:31:30;;;;;;;4.35;1.73;;;;;;;11.48;100.00;100582.50;5304959;28;20035;-79
2023/01/11 01:34:01;;;;;;;6.53;2.10;;;;;;;11.43;100.00;100571.59;5300352;28;20487;-80
2023/01/11 01:36:33;;;;;;;3.78;1.95;;;;;;;11.50;100.00;100561.38;5302420;28;20024;-79
2023/01/11 01:39:06;;;;;;;4.50;1.65;;;;;;;11.46;100.00;100573.94;5307785;28;20479;-78
2023/01/11 01:41:37;;;;;;;4.13;1.77;;;;;;;11.50;100.00;100569.25;5289701;28;20032;-78
2023/01/11 01:44:50;;;;;;;3.58;1.42;;;;;;;11.85;100.00;100576.47;5311689;28;20068;-78
2023/01/11 01:47:45;;;;;;;3.90;1.50;;;;;;;11.67;100.00;100574.56;5273943;28;20075;-79
2023/01/11 01:50:26;;;;;;;3.95;2.17;;;;;;;11.68;100.00;100567.53;5308867;28;20035;-79
2023/01/11 01:53:02;;;;;;;3.60;1.63;;;;;;;11.64;100.00;100567.00;5305087;28;20035;-79
2023/01/11 01:55:37;;;;;;;2.67;1.65;;;;;;;11.75;100.00;100568.63;5309861;28;20031;-79
2023/01/11 01:58:12;;;;;;;3.78;1.80;;;;;;;11.62;100.00;100558.41;5304888;28;20016;-79
2023/01/11 02:00:44;;;;;;;4.97;1.60;;;;;;;11.56;100.00;100560.81;5309299;28;20031;-78
2023/01/11 02:03:19;;;;;;;2.60;1.45;;;;;;;11.67;100.00;100564.09;5307035;28;20522;-79
2023/01/11 02:05:52;;;;;;;2.80;1.60;;;;;;;11.66;100.00;100566.84;5308512;28;20189;-78
2023/01/11 02:08:34;;;;;;;3.45;1.45;;;;;;;11.77;100.00;100558.78;5309156;28;20028;-78
2023/01/11 02:11:28;;;;;;;3.65;1.42;;;;;;;11.64;100.00;100569.63;5308458;28;20028;-79
2023/01/11 02:14:01;;;;;;;5.80;1.83;;;;;;;11.67;100.00;100565.88;5305729;28;20044;-78
2023/01/11 02:16:32;;;;;;;3.45;1.50;;;;;;;11.69;100.00;100566.56;5306376;28;20040;-79
2023/01/11 02:19:08;;;;;;;4.07;1.45;;;;;;;11.69;100.00;100561.31;5309426;28;20039;-79
2023/01/11 02:22:12;;;;;;;4.50;1.30;;;;;;;11.92;100.00;100572.28;5310181;28;20019;-78
2023/01/11 02:24:59;;;;;;;3.75;1.55;;;;;;;11.92;100.00;100569.66;5306684;28;20019;-78
2023/01/11 02:27:55;;;;;;;1.80;1.25;;;;;;;12.00;100.00;100571.56;5301086;28;20038;-78
2023/01/11 02:30:43;;;;;;;3.03;1.30;;;;;;;11.97;100.00;100562.19;5307232;28;20028;-78
2023/01/11 02:33:17;;;;;;;4.82;1.42;;;;;;;11.84;100.00;100565.13;5307045;28;20392;-78
2023/01/11 02:36:07;;;;;;;2.30;1.23;;;;;;;11.92;100.00;100552.09;5298713;28;20063;-78
2023/01/11 02:38:53;;;;;;;1.75;0.98;;;;;;;11.88;100.00;100566.50;5312731;28;20019;-78
2023/01/11 02:47:30;;;;;;;3.35;1.08;;;;;;;12.02;100.00;100546.00;5306657;28;20040;-78
2023/01/11 02:50:12;;;;;;;2.05;1.02;;;;;;;12.13;100.00;100553.66;5305200;28;20055;-78
2023/01/11 02:52:57;;;;;;;2.03;1.17;;;;;;;12.06;100.00;100556.06;5308203;28;20405;-78
2023/01/11 02:55:36;;;;;;;1.80;1.00;;;;;;;11.95;100.00;100539.69;5307363;28;20032;-77
2023/01/11 02:58:11;;;;;;;2.28;1.00;;;;;;;12.05;100.00;100546.53;5308550;28;20520;-78
2023/01/11 03:00:43;;;;;;;2.22;1.20;;;;;;;11.92;100.00;100538.97;5307762;28;20069;-77
2023/01/11 03:03:29;;;;;;;2.55;1.02;;;;;;;12.01;100.00;100534.66;5304775;28;20030;-77
2023/01/11 03:06:14;;;;;;;3.55;1.20;;;;;;;12.09;100.00;100553.13;5306967;28;20035;-78
2023/01/11 03:09:32;;;;;;;3.92;1.00;;;;;;;12.46;100.00;100544.31;5304423;28;20020;-78
2023/01/11 03:15:24;;;;;;;2.65;1.35;;;;;;;12.16;100.00;100545.50;5265864;28;20041;-78
2023/01/11 03:18:10;;;;;;;1.67;1.00;;;;;;;12.26;100.00;100542.81;5301896;28;20043;-78
2023/01/11 03:20:50;;;;;;;1.95;0.85;;;;;;;12.26;100.00;100542.81;5298031;28;20480;-78
2023/01/11 03:23:28;;;;;;;1.85;1.10;;;;;;;12.36;100.00;100549.66;5308851;28;20032;-77
2023/01/11 03:26:11;;;;;;;1.95;0.90;;;;;;;12.24;100.00;100540.34;5302678;28;20493;-78
2023/01/11 03:28:51;;;;;;;;;;;;;;;12.82;100.00;100534.63;5306842;28;20421;-78
2023/01/11 03:31:33;;;;;;;1.60;0.80;;;;;;;12.46;100.00;100548.75;5305833;28;20288;-78
2023/01/11 03:34:23;;;;;;;1.35;0.80;;;;;;;12.47;100.00;100543.34;5303598;28;20193;-79
2023/01/11 03:37:00;;;;;;;2.10;0.90;;;;;;;12.39;100.00;100551.97;5307096;28;20459;-78
2023/01/11 03:39:37;;;;;;;1.83;0.90;;;;;;;12.39;100.00;100551.97;5306063;28;20128;-78
2023/01/11 03:42:13;;;;;;;1.63;0.80;;;;;;;12.44;100.00;100546.28;5304443;28;20024;-79
2023/01/11 03:44:49;;;;;;;1.77;0.80;;;;;;;12.44;100.00;100545.44;5296417;28;20031;-79
2023/01/11 03:47:24;;;;;;;2.33;0.70;;;;;;;12.45;100.00;100542.66;5303639;28;20476;-79
2023/01/11 03:50:03;;;;;;;2.28;0.82;;;;;;;12.45;100.00;100533.97;5304692;28;20020;-79
2023/01/11 03:52:41;;;;;;;2.78;0.68;;;;;;;12.39;100.00;100541.47;5306895;28;20035;-78
2023/01/11 03:55:15;;;;;;;1.30;0.60;;;;;;;12.36;100.00;100531.25;5302955;28;20424;-78
2023/01/11 03:57:50;;;;;;;1.90;0.60;;;;;;;12.37;100.00;100543.41;5305697;28;20134;-78
2023/01/11 04:00:23;;;;;;;1.40;0.80;;;;;;;12.31;100.00;100544.03;5311185;28;20108;-78
2023/01/11 04:02:54;;;;;;;1.92;0.85;;;;;;;12.35;100.00;100547.16;5306763;28;20082;-78
2023/01/11 04:05:25;;;;;;;2.35;0.80;;;;;;;12.33;100.00;100543.88;5312921;28;20057;-78
2023/01/11 04:07:57;;;;;;;1.38;0.80;;;;;;;12.35;100.00;100549.78;5307611;28;20020;-77
2023/01/11 04:10:28;;;;;;;1.63;1.00;;;;;;;12.39;100.00;100538.84;5304321;28;20027;-77
2023/01/11 04:12:59;;;;;;;1.90;1.60;;;;;;;12.35;100.00;100544.53;5304978;28;20072;-77
2023/01/11 04:15:33;;;;;;;1.63;1.00;;;;;;;12.41;100.00;100552.66;5305458;28;20044;-77
2023/01/11 04:18:05;;;;;;;1.73;1.33;;;;;;;12.36;100.00;100560.16;5305367;28;20039;-77
2023/01/11 04:20:39;;;;;;;1.65;1.10;;;;;;;12.44;100.00;100569.91;5306082;28;20035;-77
2023/01/11 04:23:10;;;;;;;2.78;1.30;;;;;;;12.47;100.00;100572.25;5305964;28;20028;-77
2023/01/11 04:25:41;;;;;;;2.95;1.50;;;;;;;12.53;100.00;100562.94;5307057;28;20027;-77
2023/01/11 04:28:13;;;;;;;1.63;1.17;;;;;;;12.57;100.00;100564.28;5299956;28;20384;-77
2023/01/11 04:30:44;;;;;;;1.70;1.20;;;;;;;12.55;100.00;100561.00;5304191;28;20023;-77
2023/01/11 04:33:15;;;;;;;2.30;1.20;;;;;;;12.66;100.00;100568.66;5306760;28;20032;-78
2023/01/11 04:35:48;;;;;;;3.67;0.95;;;;;;;12.54;100.00;100580.34;5303166;28;20230;-78
2023/01/11 04:38:23;;;;;;;;;;;;;;;13.11;100.00;100570.34;5308566;28;20035;-78
2023/01/11 04:42:17;;;;;;;1.60;1.00;;;;;;;12.69;100.00;100580.66;5303948;28;19919;-78
2023/01/11 04:43:46;;;;;;;1.52;0.80;;;;;;;12.69;100.00;100585.91;5305265;28;20089;-79
2023/01/11 04:46:17;;;;;;;2.00;1.13;;;;;;;12.63;100.00;100589.97;5306169;28;20032;-78
2023/01/11 04:48:49;;;;;;;2.75;0.95;;;;;;;12.60;100.00;100592.91;5303224;28;20057;-78
2023/01/11 04:51:20;;;;;;;1.50;0.90;;;;;;;12.63;100.00;100588.16;5307029;28;20506;-78
2023/01/11 04:53:51;;;;;;;1.35;0.70;;;;;;;12.57;100.00;100591.38;5306383;28;20100;-77
2023/01/11 04:56:23;;;;;;;1.30;0.77;;;;;;;12.63;100.00;100590.81;5303235;28;20024;-77
2023/01/11 04:58:56;;;;;;;2.33;0.88;;;;;;;12.66;100.00;100587.88;5306052;28;20020;-77
2023/01/11 05:01:28;;;;;;;1.08;0.70;;;;;;;12.52;100.00;100583.13;5302205;28;20107;-77
2023/01/11 05:03:59;;;;;;;2.47;0.90;;;;;;;12.64;100.00;100578.47;5305811;28;20047;-77
2023/01/11 05:06:30;;;;;;;1.60;0.68;;;;;;;12.61;100.00;100597.16;5305051;28;20035;-77
2023/01/11 05:09:02;;;;;;;1.65;0.70;;;;;;;12.64;100.00;100589.00;5303063;28;20070;-77
2023/01/11 05:11:33;;;;;;;2.05;0.75;;;;;;;12.64;100.00;100589.81;5305640;28;20473;-77
2023/01/11 05:14:04;;;;;;;1.30;0.80;;;;;;;12.69;100.00;100594.66;5304749;28;20031;-77
2023/01/11 05:16:36;;;;;;;1.80;1.00;;;;;;;12.63;100.00;100587.34;5301503;28;20020;-77
2023/01/11 05:19:09;;;;;;;1.80;0.98;;;;;;;12.65;100.00;100588.88;5308728;28;20523;-77
2023/01/11 05:21:41;;;;;;;1.50;1.15;;;;;;;12.59;100.00;100607.03;5307714;28;20039;-77
2023/01/11 05:24:14;;;;;;;2.03;1.30;;;;;;;12.59;100.00;100613.09;5307618;28;20023;-77
2023/01/11 05:26:47;;;;;;;;;;;;;;;13.15;100.00;100613.78;5306178;28;20511;-77
2023/01/11 05:29:19;;;;;;;2.80;1.92;;;;;;;12.84;100.00;100615.94;5306644;28;20265;-77
2023/01/11 05:31:51;;;;;;;3.65;1.90;;;;;;;12.69;100.00;100618.31;5308926;28;20487;-77
2023/01/11 05:34:22;;;;;;;6.35;2.20;;;;;;;12.61;100.00;100616.41;5287494;28;20032;-77
2023/01/11 05:36:54;;;;;;;4.38;2.15;;;;;;;12.65;100.00;100614.28;5308709;28;20094;-77
2023/01/11 05:39:25;;;;;;;3.78;2.40;;;;;;;12.54;100.00;100617.13;5310295;28;20032;-77
2023/01/11 05:41:56;;;;;;;4.50;2.47;;;;;;;12.52;100.00;100619.91;5307700;28;20015;-77
2023/01/11 05:47:17;;;;;;;7.32;3.40;;;;;;;12.57;100.00;100627.34;5310945;28;20043;-77
2023/01/11 05:49:49;;;;;;;6.28;3.22;;;;;;;12.51;100.00;100612.19;5310855;28;20028;-77
2023/01/11 05:52:20;;;;;;;5.43;3.03;;;;;;;12.55;100.00;100616.19;5313000;28;20106;-77
2023/01/11 05:54:51;;;;;;;4.50;3.40;;;;;;;12.52;100.00;100616.47;5307050;28;20028;-77
2023/01/11 05:57:22;;;;;;;5.43;3.67;;;;;;;12.46;100.00;100624.94;5310785;28;20485;-77
2023/01/11 05:59:54;;;;;;;6.45;2.22;;;;;;;12.35;100.00;100632.06;5308843;28;20047;-76
2023/01/11 06:02:25;;;;;;;8.25;2.42;;;;;;;12.34;100.00;100642.69;5306366;28;20089;-77
2023/01/11 06:04:56;;;;;;;7.40;2.25;;;;;;;12.38;100.00;100654.56;5308202;28;20031;-77
2023/01/11 06:07:28;;;;;;;7.05;2.30;;;;;;;12.35;100.00;100647.84;5308573;28;20027;-77
2023/01/11 06:09:59;;;;;;;8.70;2.22;;;;;;;12.29;100.00;100645.78;5308914;28;20054;-77
2023/01/11 06:12:30;;;;;;;8.25;2.22;;;;;;;12.21;100.00;100637.81;5307567;28;20140;-77
2023/01/11 06:15:01;;;;;;;9.88;3.05;;;;;;;12.17;100.00;100647.78;5308112;28;20027;-77
2023/01/11 06:17:33;;;;;;;11.43;3.10;;;;;;;12.07;100.00;100664.53;5305477;28;20122;-77
2023/01/11 06:20:05;;;;;;;8.90;2.53;;;;;;;12.05;100.00;100661.25;5308991;28;20714;-76
2023/01/11 06:22:36;;;;;;;11.23;2.95;;;;;;;11.97;100.00;100667.22;5307167;28;20033;-76
2023/01/11 06:25:08;;;;;;;10.93;3.03;;;;;;;12.00;100.00;100668.69;5308320;28;20050;-77
2023/01/11 06:27:39;;;;;;;13.35;3.22;;;;;;;11.95;100.00;100668.31;5301762;28;20472;-77
2023/01/11 06:30:11;;;;;;;12.57;3.00;;;;;;;12.05;100.00;100659.44;5306864;28;20020;-76
2023/01/11 06:32:42;;;;;;;13.63;3.00;;;;;;;11.97;100.00;100679.47;5291096;28;20030;-76
2023/01/11 06:35:13;;;;;;;12.48;2.83;;;;;;;11.87;100.00;100674.28;5303549;28;20598;-77
2023/01/11 06:37:45;;;;;;;11.20;3.05;;;;;;;11.85;100.00;100687.53;5303601;28;20028;-77
2023/01/11 06:40:16;;;;;;;15.25;3.15;;;;;;;11.84;100.00;100701.63;5307430;28;20035;-76
2023/01/11 06:42:47;;;;;;;9.52;2.75;;;;;;;11.84;100.00;100696.38;5309218;28;20032;-76
2023/01/11 06:45:19;;;;;;;11.40;2.80;;;;;;;11.88;100.00;100702.19;5306961;28;20028;-77
2023/01/11 06:47:50;;;;;;;8.95;2.45;;;;;;;11.80;100.00;100708.09;5306276;28;20028;-77
2023/01/11 06:50:22;;;;;;;14.52;3.53;;;;;;;11.76;100.00;100713.78;5301543;28;20431;-77
2023/01/11 06:52:55;;;;;;;12.73;3.08;;;;;;;11.78;100.00;100746.81;5302988;28;20032;-76
2023/01/11 06:55:27;;;;;;;11.48;3.55;;;;;;;11.71;100.00;100729.97;5304231;28;20039;-77
2023/01/11 06:57:59;;;;;;;16.15;3.50;;;;;;;11.77;100.00;100733.81;5291704;28;20038;-77
2023/01/11 07:00:31;;;;;;;15.40;3.65;;;;;;;11.67;100.00;100731.22;5306952;28;20436;-76
2023/01/11 07:03:03;;;;;;;11.55;3.60;;;;;;;11.68;100.00;100728.44;5303483;28;20027;-77
2023/01/11 07:05:35;;;;;;;13.07;3.90;;;;;;;11.60;100.00;100727.47;5308100;28;20492;-77
2023/01/11 07:08:07;;;;;;;15.80;3.55;;;;;;;11.66;100.00;100730.34;5305699;28;20111;-76
2023/01/11 07:10:38;;;;;;;18.02;3.65;;;;;;;11.65;100.00;100738.38;5286894;28;20476;-76
2023/01/11 07:13:10;;;;;;;19.65;4.90;;;;;;;11.60;100.00;100744.03;5304171;28;20055;-77
2023/01/11 07:15:49;;;;;;;16.23;3.50;;;;;;;11.60;100.00;100730.94;5306894;28;20106;-77
2023/01/11 07:18:20;;;;;;;13.27;4.00;;;;;;;11.49;100.00;100744.19;5303129;28;20051;-77
2023/01/11 07:20:52;;;;;;;20.30;4.35;;;;;;;11.56;100.00;100768.91;5311384;28;20027;-77
2023/01/11 07:23:23;;;;;;;20.55;4.05;;;;;;;11.47;100.00;100761.03;5286067;28;20484;-76
2023/01/11 07:25:54;;;;;;;15.80;4.00;;;;;;;11.36;100.00;100765.44;5296400;28;20035;-77
2023/01/11 07:28:27;;;;;;;16.40;3.67;;;;;;;11.43;100.00;100786.69;5279041;28;20039;-77
2023/01/11 07:30:58;;;;;;;18.48;3.65;;;;;;;11.49;100.00;100785.34;5296092;28;20039;-76
2023/01/11 07:33:30;;;;;;;12.10;3.27;;;;;;;11.34;100.00;100785.75;5304988;28;20139;-77
2023/01/11 07:36:04;;;;;;;17.13;4.32;;;;;;;11.33;100.00;100776.22;5304053;28;20711;-76
2023/01/11 07:38:35;;;;;;;14.75;4.43;;;;;;;11.27;100.00;100783.78;5304577;28;20440;-76
2023/01/11 07:43:56;;;;;;;15.70;3.80;;;;;;;11.23;100.00;100801.59;5304160;28;20044;-77
2023/01/11 07:46:28;;;;;;;19.17;3.65;;;;;;;11.22;100.00;100801.75;5304330;28;20032;-77
2023/01/11 07:48:59;;;;;;;23.23;4.95;;;;;;;11.28;100.00;100809.06;5300726;28;20442;-77
2023/01/11 07:51:30;;;;;;;19.05;4.20;;;;;;;11.21;100.00;100827.09;5302390;28;20369;-77
2023/01/11 07:54:02;;;;;;;11.68;3.33;;;;;;;11.08;100.00;100813.44;5303786;28;20602;-77
2023/01/11 07:56:34;;;;;;;19.65;4.43;;;;;;;11.02;100.00;100825.25;5305657;28;20129;-77
2023/01/11 07:59:05;;;;;;;21.90;5.20;;;;;;;11.07;100.00;100838.81;5302394;28;20127;-77
2023/01/11 08:01:36;;;;;;;15.93;3.67;;;;;;;10.90;100.00;100828.97;5304761;28;20069;-77
2023/01/11 08:04:11;;;;;;;24.23;4.57;;;;;;;10.93;100.00;100828.69;5306878;28;20027;-77
2023/01/11 08:06:42;;;;;;;16.08;4.03;;;;;;;10.92;100.00;100843.59;5302013;28;20476;-77
2023/01/11 08:09:13;;;;;;;20.45;4.45;;;;;;;10.90;100.00;100848.13;5301793;28;20116;-77
2023/01/11 08:14:38;;;;;;;21.05;4.40;;;;;;;10.81;100.00;100840.25;5305592;28;20040;-77
2023/01/11 08:17:14;;;;;;;18.77;4.68;;;;;;;10.81;100.00;100843.69;5299265;28;20035;-77
2023/01/11 08:19:46;;;;;;;19.30;3.83;;;;;;;10.71;100.00;100855.91;5302077;28;20114;-77
2023/01/11 08:22:17;;;;;;;18.15;4.05;;;;;;;10.60;100.00;100854.19;5286375;28;20158;-77
2023/01/11 08:24:48;;;;;;;13.82;4.18;;;;;;;10.72;100.00;100894.28;5306907;28;20370;-77
2023/01/11 08:27:19;;;;;;;18.50;4.50;;;;;;;10.75;100.00;100899.22;5282016;28;20376;-76
2023/01/11 08:29:51;;;;;;;17.67;4.30;;;;;;;10.64;100.00;100894.91;5302048;28;20118;-77
2023/01/11 08:32:22;;;;;;;19.40;3.50;;;;;;;10.60;100.00;100896.13;5303240;28;20028;-76
2023/01/11 08:34:53;;;;;;;20.27;4.05;;;;;;;10.63;100.00;100910.75;5305136;28;20110;-77
2023/01/11 08:37:25;;;;;;;16.17;3.97;;;;;;;10.57;100.00;100906.88;5298496;28;20468;-77
2023/01/11 08:39:57;;;;;;;14.85;3.45;;;;;;;10.58;100.00;100913.78;5303716;28;20052;-76
2023/01/11 08:42:28;;;;;;;16.80;4.55;;;;;;;10.62;100.00;100927.44;5302572;28;20379;-77
2023/01/11 08:44:59;;;;;;;14.45;3.33;;;;;;;10.61;100.00;100926.63;5285285;28;20084;-77
2023/01/11 08:47:31;;;;;;;17.13;3.45;;;;;;;10.49;100.00;100914.53;5299121;28;20027;-77
2023/01/11 08:50:03;;;;;;;18.35;3.60;;;;;;;10.52;100.00;100934.41;5298270;28;20111;-76
2023/01/11 08:52:35;;;;;;;18.08;3.90;;;;;;;10.42;100.00;100922.06;5304413;28;20407;-77
2023/01/11 08:55:06;;;;;;;19.33;4.63;;;;;;;10.46;100.00;100939.19;5301743;28;20107;-77
2023/01/11 08:57:38;;;;;;;11.93;3.45;;;;;;;10.43;100.00;100949.09;5287999;28;20040;-77
2023/01/11 09:00:10;;;;;;;16.05;4.25;;;;;;;10.31;100.00;100937.03;5306418;28;20106;-76
2023/01/11 09:02:43;;;;;;;16.08;3.40;;;;;;;10.46;100.00;100952.28;5311944;28;20023;-77
2023/01/11 09:05:18;;;;;;;18.63;4.63;;;;;;;10.39;100.00;100955.53;5290176;28;20543;-76
2023/01/11 09:07:49;;;;;;;20.20;4.00;;;;;;;10.31;100.00;100961.41;5304126;28;20127;-77
2023/01/11 09:10:21;;;;;;;23.67;4.22;;;;;;;10.36;100.00;100968.88;5302426;28;20040;-76
2023/01/11 09:12:53;;;;;;;17.80;3.70;;;;;;;10.29;100.00;100960.69;5297639;28;20024;-77
2023/01/11 09:15:24;;;;;;;12.02;3.47;;;;;;;10.31;100.00;100964.03;5302822;28;20020;-76
2023/01/11 09:17:55;;;;;;;14.70;3.17;;;;;;;10.25;100.00;100954.03;5302387;28;20110;-77
2023/01/11 09:20:27;;;;;;;15.60;3.42;;;;;;;10.26;100.00;100960.94;5308271;28;20077;-76
2023/01/11 09:22:58;;;;;;;15.65;3.45;;;;;;;10.31;100.00;100978.91;5302902;28;20026;-76
2023/01/11 09:25:29;;;;;;;18.58;3.65;;;;;;;10.27;100.00;100978.34;5300472;28;20114;-76
2023/01/11 09:28:01;;;;;;;19.73;3.95;;;;;;;10.30;100.00;100985.09;5301840;28;20028;-77
2023/01/11 09:30:32;;;;;;;14.50;2.70;;;;;;;10.24;100.00;100974.13;5300437;28;20048;-76
2023/01/11 09:33:05;;;;;;;14.45;3.20;;;;;;;10.24;100.00;100986.41;5307752;28;20034;-76
2023/01/11 09:35:40;;;;;;;18.27;3.72;;;;;;;10.25;100.00;100982.84;5285619;28;20031;-76
2023/01/11 09:38:11;;;;;;;21.55;3.95;;;;;;;10.24;100.00;100989.84;5303039;28;20028;-76
2023/01/11 09:40:47;;;;;;;17.45;3.83;;;;;;;10.30;100.00;101000.81;5305288;28;20024;-76
2023/01/11 09:43:23;;;;;;;16.67;3.50;;;;;;;10.17;100.00;100996.53;5302696;28;20031;-76
2023/01/11 09:46:01;;;;;;;16.23;3.67;;;;;;;10.16;100.00;100984.41;5306312;28;20024;-76
2023/01/11 09:48:42;;;;;;;15.77;2.97;;;;;;;10.23;100.00;101006.53;5300186;28;20036;-76
2023/01/11 09:51:15;;;;;;;21.02;3.58;;;;;;;10.10;100.00;101003.22;5300188;28;20023;-76
2023/01/11 09:53:49;;;;;;;15.57;3.90;;;;;;;10.14;100.00;101004.63;5286023;28;20027;-76
2023/01/11 09:56:24;;;;;;;15.18;3.85;;;;;;;10.17;100.00;100996.53;5304452;28;20448;-76
2023/01/11 09:59:00;;;;;;;15.85;3.75;;;;;;;10.23;100.00;101013.53;5304290;28;20027;-76
2023/01/11 10:01:37;;;;;;;23.67;3.63;;;;;;;10.30;100.00;101022.56;5302696;28;20106;-76
2023/01/11 10:04:15;;;;;;;15.05;3.30;;;;;;;10.35;100.00;101019.63;5307342;28;20031;-76
2023/01/11 10:06:57;;;;;;;18.80;3.97;;;;;;;10.48;100.00;101015.84;5304020;28;20149;-77
2023/01/11 10:09:47;;;;;;;18.23;3.78;;;;;;;10.66;100.00;101023.16;5294223;28;20427;-76
2023/01/11 10:12:33;;;;;;;11.52;3.03;;;;;;;10.64;100.00;101027.69;5304773;28;20039;-76
2023/01/11 10:15:31;;;;;;;18.15;4.65;;;;;;;10.80;100.00;101027.28;5304751;28;20024;-76
2023/01/11 10:18:34;;;;;;;13.55;3.30;;;;;;;10.75;100.00;101016.31;5292840;28;20512;-76
2023/01/11 10:21:39;;;;;;;12.77;3.28;;;;;;;10.96;100.00;101027.66;5284405;28;20024;-76
2023/01/11 10:24:22;;;;;;;16.58;3.42;;;;;;;10.67;100.00;101014.34;5229848;28;20600;-77
2023/01/11 10:26:58;;;;;;;14.38;3.70;;;;;;;10.71;100.00;101019.19;5286243;28;20016;-76
2023/01/11 10:32:38;;;;;;;19.88;4.05;;;;;;;10.75;100.00;101011.09;5292596;28;20043;-76
2023/01/11 10:35:34;;;;;;;18.38;4.35;;;;;;;10.80;100.00;101022.88;5286627;28;20051;-77
2023/01/11 10:38:29;;;;;;;19.27;4.10;;;;;;;10.79;100.00;101025.59;5289794;28;20028;-76
2023/01/11 10:41:14;;;;;;;22.88;3.83;;;;;;;10.87;100.00;101017.94;5267655;28;20031;-77
2023/01/11 10:43:52;;;;;;;19.33;4.18;;;;;;;10.87;100.00;101031.88;5285910;28;20024;-76
2023/01/11 10:46:25;;;;;;;18.33;4.05;;;;;;;10.90;100.00;101031.59;5291625;28;20032;-76
2023/01/11 10:49:24;;;;;;;14.07;3.42;;;;;;;11.16;100.00;101031.22;5289209;28;20063;-76
2023/01/11 10:52:04;;;;;;;15.18;3.83;;;;;;;10.96;100.00;101012.75;5285643;28;20028;-77
2023/01/11 10:54:37;;;;;;;12.05;3.05;;;;;;;11.01;100.00;101027.28;5287707;28;20437;-77
2023/01/11 10:57:40;;;;;;;14.07;3.47;;;;;;;11.29;100.00;101034.50;5286857;28;20027;-76
2023/01/11 11:00:17;;;;;;;18.02;4.25;;;;;;;11.23;100.00;101023.69;5278860;28;20243;-76
2023/01/11 11:03:01;;;;;;;19.88;4.05;;;;;;;11.31;100.00;101026.47;5279988;28;20593;-76
2023/01/11 11:05:38;;;;;;;15.40;3.33;;;;;;;11.34;100.00;101023.59;5288758;28;20039;-76
2023/01/11 11:08:26;;;;;;;16.25;3.35;;;;;;;11.31;100.00;101035.16;5284708;28;20047;-76
2023/01/11 11:11:12;;;;;;;15.50;3.75;;;;;;;11.29;100.00;101025.75;5269090;28;20032;-76
2023/01/11 11:14:02;;;;;;;15.57;3.58;;;;;;;11.40;100.00;101036.19;5281760;28;20060;-76
2023/01/11 11:16:50;;;;;;;14.60;3.45;;;;;;;11.42;100.00;101029.03;5285016;28;20024;-76
2023/01/11 11:19:28;;;;;;;16.38;3.83;;;;;;;11.20;100.00;101020.34;5306158;28;20139;-77
2023/01/11 11:21:59;;;;;;;19.13;3.95;;;;;;;11.38;100.00;101045.97;5290070;28;20019;-76
2023/01/11 11:24:40;;;;;;;18.17;3.33;;;;;;;11.39;100.00;101030.09;5303602;28;20473;-76
2023/01/11 11:27:19;;;;;;;16.00;3.55;;;;;;;11.47;100.00;101029.44;5301833;28;20052;-76
2023/01/11 11:29:54;;;;;;;16.20;3.78;;;;;;;11.46;100.00;101027.78;5307888;28;20085;-76
2023/01/11 11:32:25;;;;;;;11.90;3.42;;;;;;;11.44;100.00;101032.34;5306094;28;20495;-76
2023/01/11 11:34:57;;;;;;;16.48;3.95;;;;;;;11.41;100.00;101030.00;5305095;28;20035;-76
2023/01/11 11:37:34;;;;;;;14.20;3.30;;;;;;;11.45;100.00;101036.63;5305045;28;20024;-76
2023/01/11 11:40:25;;;;;;;18.85;4.32;;;;;;;11.38;100.00;101040.75;5307636;28;20024;-77
2023/01/11 11:43:19;;;;;;;19.13;4.95;;;;;;;11.76;100.00;101047.94;5305604;28;20641;-76
2023/01/11 11:45:51;;;;;;;;;;;;;;;12.08;100.00;101049.56;5300953;28;20360;-76
2023/01/11 11:48:24;;;;;;;16.38;3.78;;;;;;;11.62;100.00;101057.00;5282776;28;19923;-77
2023/01/11 11:50:57;;;;;;;;;;;;;;;12.26;100.00;101050.59;5305261;28;20036;-77
2023/01/11 11:53:43;;;;;;;19.02;4.10;;;;;;;11.85;100.00;101049.78;5297714;28;20399;-77
2023/01/11 11:56:23;;;;;;;18.40;3.95;;;;;;;11.82;100.00;101054.44;5304483;28;20146;-77
2023/01/11 11:58:56;;;;;;;15.75;3.55;;;;;;;11.71;100.00;101057.19;5307610;28;20050;-77
2023/01/11 12:01:32;;;;;;;15.77;3.83;;;;;;;11.79;100.00;101052.09;5303718;28;20034;-77
2023/01/11 12:04:29;;;;;;;19.00;3.75;;;;;;;12.04;100.00;101059.53;5304796;28;20024;-77
2023/01/11 12:07:15;;;;;;;15.45;3.60;;;;;;;12.06;100.00;101054.16;5306446;28;20056;-77
2023/01/11 12:09:53;;;;;;;18.65;3.95;;;;;;;11.89;100.00;101037.22;5303682;28;20516;-77
2023/01/11 12:12:25;;;;;;;16.02;4.07;;;;;;;11.92;100.00;101052.72;5304072;28;20057;-77
2023/01/11 12:15:14;;;;;;;16.45;4.28;;;;;;;12.01;100.00;101051.06;5303503;28;20027;-77
2023/01/11 12:17:45;;;;;;;13.82;3.08;;;;;;;11.86;100.00;101051.47;5301478;28;20450;-77
2023/01/11 12:20:33;;;;;;;16.88;4.43;;;;;;;12.05;100.00;101058.56;5301960;28;20122;-77
2023/01/11 12:23:15;;;;;;;18.58;3.67;;;;;;;11.91;100.00;101041.38;5301034;28;20063;-77